createdAt,value
2022-08-17T00:01:24.180Z,24.30
2022-08-17T00:03:54.079Z,24.20
2022-08-17T00:06:20.906Z,24.20
2022-08-17T00:08:56.285Z,24.00
2022-08-17T00:11:33.661Z,24.00
2022-08-17T00:14:03.319Z,23.90
2022-08-17T00:16:56.185Z,23.90
2022-08-17T00:19:25.070Z,23.90
2022-08-17T00:22:31.479Z,23.90
2022-08-17T00:24:40.075Z,23.80
2022-08-17T00:27:06.844Z,23.80
2022-08-17T00:29:33.691Z,23.80
2022-08-17T00:32:01.549Z,23.80
2022-08-17T00:34:48.330Z,23.80
2022-08-17T00:37:15.083Z,23.80
2022-08-17T00:39:41.887Z,23.70
2022-08-17T00:42:15.366Z,23.70
2022-08-17T00:44:42.148Z,23.60
2022-08-17T00:47:08.896Z,23.50
2022-08-17T00:49:35.663Z,23.50
2022-08-17T00:52:10.885Z,23.50
2022-08-17T00:54:42.101Z,23.50
2022-08-17T00:57:09.191Z,23.50
2022-08-17T00:59:40.479Z,23.40
2022-08-17T01:02:08.807Z,23.40
2022-08-17T01:04:36.054Z,23.30
2022-08-17T01:07:03.584Z,23.30
2022-08-17T01:09:31.120Z,23.30
2022-08-17T01:11:57.853Z,23.20
2022-08-17T01:14:25.060Z,23.20
2022-08-17T01:16:54.197Z,23.20
2022-08-17T01:19:22.819Z,23.20
2022-08-17T01:21:53.203Z,23.10
2022-08-17T01:24:19.922Z,23.10
2022-08-17T01:26:47.214Z,23.00
2022-08-17T01:29:16.085Z,23.00
2022-08-17T01:31:45.688Z,23.00
2022-08-17T01:34:13.730Z,23.00
2022-08-17T01:36:41.895Z,22.90
2022-08-17T01:39:11.738Z,23.00
2022-08-17T01:41:40.462Z,23.00
2022-08-17T01:44:09.265Z,23.10
2022-08-17T01:46:37.066Z,23.20
2022-08-17T01:49:08.705Z,23.10
2022-08-17T01:51:35.509Z,23.10
2022-08-17T01:54:05.188Z,23.20
2022-08-17T01:56:33.398Z,23.20
2022-08-17T01:59:00.183Z,23.30
2022-08-17T02:01:28.462Z,23.30
2022-08-17T02:03:59.775Z,23.30
2022-08-17T02:06:47.115Z,23.30
2022-08-17T02:09:19.244Z,23.40
2022-08-17T02:11:50.221Z,23.40
2022-08-17T02:14:17.955Z,23.40
2022-08-17T02:16:44.714Z,23.40
2022-08-17T02:19:13.446Z,23.40
2022-08-17T02:21:40.685Z,23.50
2022-08-17T02:24:09.020Z,23.50
2022-08-17T02:26:36.101Z,23.40
2022-08-17T02:29:04.230Z,23.50
2022-08-17T02:31:31.289Z,23.40
2022-08-17T02:34:03.507Z,23.40
2022-08-17T02:36:31.134Z,23.50
2022-08-17T02:38:58.787Z,23.50
2022-08-17T02:41:25.652Z,23.50
2022-08-17T02:43:53.219Z,23.50
2022-08-17T02:46:20.056Z,23.40
2022-08-17T02:48:47.319Z,23.40
2022-08-17T02:51:14.487Z,23.40
2022-08-17T02:53:41.256Z,23.40
2022-08-17T02:56:08.075Z,23.50
2022-08-17T02:58:36.079Z,23.50
2022-08-17T03:01:04.369Z,23.50
2022-08-17T03:03:31.115Z,23.40
2022-08-17T03:05:58.005Z,23.40
2022-08-17T03:08:25.576Z,23.30
2022-08-17T03:10:52.782Z,23.30
2022-08-17T03:13:20.164Z,23.30
2022-08-17T03:15:47.131Z,23.30
2022-08-17T03:18:18.991Z,23.20
2022-08-17T03:20:51.725Z,23.20
2022-08-17T03:23:18.808Z,23.20
2022-08-17T03:25:52.971Z,23.10
2022-08-17T03:28:20.783Z,23.10
2022-08-17T03:30:47.563Z,23.10
2022-08-17T03:33:14.770Z,23.00
2022-08-17T03:35:42.094Z,23.00
2022-08-17T03:38:10.273Z,23.00
2022-08-17T03:40:56.361Z,23.00
2022-08-17T03:43:25.242Z,23.10
2022-08-17T03:46:34.448Z,23.20
2022-08-17T03:49:16.042Z,23.20
2022-08-17T03:52:01.585Z,23.10
2022-08-17T03:54:47.050Z,23.00
2022-08-17T03:57:13.889Z,23.00
2022-08-17T03:59:41.191Z,23.00
2022-08-17T04:02:09.704Z,23.00
2022-08-17T04:04:37.066Z,23.00
2022-08-17T04:07:04.210Z,22.90
2022-08-17T04:09:31.113Z,22.80
2022-08-17T04:12:04.484Z,22.80
2022-08-17T04:14:36.210Z,22.70
2022-08-17T04:17:15.062Z,22.60
2022-08-17T04:19:42.753Z,22.50
2022-08-17T04:22:09.518Z,22.40
2022-08-17T04:24:36.381Z,22.30
2022-08-17T04:27:03.190Z,22.20
2022-08-17T04:29:54.802Z,22.10
2022-08-17T04:32:17.998Z,22.10
2022-08-17T04:35:03.619Z,22.00
2022-08-17T04:37:30.329Z,22.00
2022-08-17T04:40:15.887Z,22.00
2022-08-17T04:42:42.748Z,22.10
2022-08-17T04:45:09.922Z,22.20
2022-08-17T04:47:36.656Z,22.40
2022-08-17T04:50:04.130Z,22.50
2022-08-17T04:52:43.302Z,22.40
2022-08-17T04:55:18.569Z,22.40
2022-08-17T04:57:45.400Z,22.50
2022-08-17T05:00:12.405Z,22.50
2022-08-17T05:02:50.481Z,22.50
2022-08-17T05:05:22.036Z,22.60
2022-08-17T05:07:51.538Z,22.60
2022-08-17T05:10:18.351Z,22.70
2022-08-17T05:12:45.076Z,22.70
2022-08-17T05:15:16.050Z,22.80
2022-08-17T05:17:43.731Z,22.90
2022-08-17T05:20:10.704Z,22.80
2022-08-17T05:22:46.122Z,22.80
2022-08-17T05:25:12.883Z,22.90
2022-08-17T05:27:40.557Z,22.90
2022-08-17T05:30:08.812Z,22.80
2022-08-17T05:32:38.419Z,22.90
2022-08-17T05:35:07.239Z,22.80
2022-08-17T05:37:33.999Z,22.70
2022-08-17T05:40:00.810Z,22.70
2022-08-17T05:42:27.660Z,22.70
2022-08-17T05:44:57.167Z,22.80
2022-08-17T05:47:24.940Z,22.90
2022-08-17T05:49:51.824Z,23.00
2022-08-17T05:52:26.374Z,22.90
2022-08-17T05:55:02.215Z,22.90
2022-08-17T05:57:35.027Z,22.80
2022-08-17T06:00:07.697Z,22.60
2022-08-17T06:02:47.499Z,22.40
2022-08-17T06:05:26.794Z,22.10
2022-08-17T06:08:11.412Z,21.90
2022-08-17T06:10:46.515Z,21.90
2022-08-17T06:13:20.191Z,21.80
2022-08-17T06:16:01.822Z,21.80
2022-08-17T06:18:36.704Z,21.80
2022-08-17T06:21:05.787Z,21.70
2022-08-17T06:23:35.145Z,21.90
2022-08-17T06:26:05.155Z,21.90
2022-08-17T06:28:52.169Z,22.10
2022-08-17T06:31:31.289Z,22.00
2022-08-17T06:34:00.171Z,22.00
2022-08-17T06:36:45.762Z,22.00
2022-08-17T06:39:22.198Z,22.00
2022-08-17T06:41:54.940Z,22.00
2022-08-17T06:44:43.451Z,22.10
2022-08-17T06:47:38.312Z,22.10
2022-08-17T06:50:15.453Z,22.30
2022-08-17T06:52:49.869Z,22.60
2022-08-17T06:55:21.362Z,22.70
2022-08-17T06:57:52.457Z,22.90
2022-08-17T07:00:24.030Z,22.90
2022-08-17T07:02:59.591Z,22.80
2022-08-17T07:05:30.761Z,22.90
2022-08-17T07:08:04.231Z,22.90
2022-08-17T07:10:34.544Z,22.90
2022-08-17T07:13:07.658Z,22.90
2022-08-17T07:15:40.316Z,23.00
2022-08-17T07:18:07.102Z,23.00
2022-08-17T07:20:34.905Z,22.90
2022-08-17T07:23:08.683Z,22.70
2022-08-17T07:25:35.464Z,22.70
2022-08-17T07:28:05.970Z,22.70
2022-08-17T07:30:45.803Z,22.70
2022-08-17T07:33:17.884Z,22.90
2022-08-17T07:35:45.053Z,23.00
2022-08-17T07:38:24.896Z,23.10
2022-08-17T07:41:01.979Z,23.20
2022-08-17T07:43:34.824Z,23.20
2022-08-17T07:46:39.454Z,23.20
2022-08-17T07:49:09.227Z,23.10
2022-08-17T07:51:45.769Z,23.20
2022-08-17T07:54:15.560Z,23.20
2022-08-17T07:56:42.429Z,23.30
2022-08-17T07:59:15.580Z,23.40
2022-08-17T08:01:45.686Z,23.50
2022-08-17T08:07:29.497Z,23.20
2022-08-17T08:10:00.995Z,23.00
2022-08-17T08:12:33.645Z,23.00
2022-08-17T08:15:03.537Z,23.10
2022-08-17T08:17:35.772Z,23.20
2022-08-17T08:20:51.185Z,23.30
2022-08-17T08:23:06.190Z,23.40
2022-08-17T08:25:39.334Z,23.60
2022-08-17T08:28:27.323Z,23.70
2022-08-17T08:31:11.774Z,23.80
2022-08-17T08:33:44.446Z,24.00
2022-08-17T08:37:14.049Z,24.20
2022-08-17T08:39:22.028Z,24.50
2022-08-17T08:41:55.310Z,24.60
2022-08-17T08:45:00.852Z,24.70
2022-08-17T08:47:41.637Z,24.80
2022-08-17T08:50:30.259Z,25.00
2022-08-17T08:53:12.622Z,25.00
2022-08-17T08:55:39.405Z,25.00
2022-08-17T08:58:09.239Z,25.00
2022-08-17T09:00:58.301Z,25.10
2022-08-17T09:03:52.426Z,25.30
2022-08-17T09:06:38.817Z,25.30
2022-08-17T09:09:24.419Z,25.30
2022-08-17T09:12:03.420Z,25.30
2022-08-17T09:14:45.402Z,25.30
2022-08-17T09:17:16.562Z,25.00
2022-08-17T09:19:49.574Z,24.70
2022-08-17T09:22:27.052Z,24.50
2022-08-17T09:24:57.294Z,24.30
2022-08-17T09:27:31.382Z,24.20
2022-08-17T09:30:07.861Z,24.30
2022-08-17T09:32:38.476Z,24.50
2022-08-17T09:35:12.296Z,24.50
2022-08-17T09:37:47.766Z,24.50
2022-08-17T09:40:21.210Z,24.40
2022-08-17T09:42:54.054Z,24.40
2022-08-17T09:45:33.207Z,24.40
2022-08-17T09:48:12.260Z,24.50
2022-08-17T09:51:05.993Z,24.50
2022-08-17T09:53:36.863Z,24.50
2022-08-17T09:56:09.863Z,24.50
2022-08-17T09:58:53.254Z,24.50
2022-08-17T10:01:41.081Z,24.50
2022-08-17T10:04:22.099Z,24.50
2022-08-17T10:06:57.761Z,24.20
2022-08-17T10:09:35.032Z,23.90
2022-08-17T10:12:20.833Z,23.60
2022-08-17T10:15:07.986Z,23.40
2022-08-17T10:18:04.402Z,23.20
2022-08-17T10:20:36.292Z,23.00
2022-08-17T10:23:40.947Z,22.90
2022-08-17T10:26:16.852Z,22.90
2022-08-17T10:28:48.119Z,22.80
2022-08-17T10:31:41.347Z,22.70
2022-08-17T10:34:26.818Z,22.50
2022-08-17T10:37:28.327Z,22.50
2022-08-17T10:39:58.236Z,22.50
2022-08-17T10:42:30.417Z,22.50
2022-08-17T10:45:03.447Z,22.40
2022-08-17T10:48:07.047Z,22.40
2022-08-17T10:50:43.199Z,22.30
2022-08-17T10:53:11.430Z,22.20
2022-08-17T10:56:01.131Z,22.20
2022-08-17T10:58:37.678Z,22.20
2022-08-17T11:01:04.608Z,22.30
2022-08-17T11:03:32.909Z,22.40
2022-08-17T11:06:12.426Z,22.50
2022-08-17T11:08:39.190Z,22.40
2022-08-17T11:11:14.709Z,22.50
2022-08-17T11:13:52.141Z,22.70
2022-08-17T11:16:48.073Z,22.70
2022-08-17T11:19:14.915Z,22.70
2022-08-17T11:22:17.052Z,22.60
2022-08-17T11:24:47.870Z,22.70
2022-08-17T11:27:31.467Z,22.60
2022-08-17T11:30:02.542Z,22.60
2022-08-17T11:32:37.398Z,22.70
2022-08-17T11:35:21.241Z,22.70
2022-08-17T11:37:56.782Z,22.80
2022-08-17T11:40:42.081Z,22.90
2022-08-17T11:43:27.398Z,22.90
2022-08-17T11:46:13.907Z,23.00
2022-08-17T11:49:13.425Z,23.00
2022-08-17T11:52:00.178Z,23.10
2022-08-17T11:54:33.410Z,23.00
2022-08-17T11:57:26.696Z,23.00
2022-08-17T12:00:00.970Z,23.10
2022-08-17T12:02:36.096Z,23.20
2022-08-17T12:05:29.328Z,23.40
2022-08-17T12:08:05.520Z,23.50
2022-08-17T12:10:34.396Z,23.70
2022-08-17T12:13:06.886Z,23.80
2022-08-17T12:15:39.536Z,23.90
2022-08-17T12:18:06.502Z,24.00
2022-08-17T12:20:37.836Z,24.10
2022-08-17T12:23:11.111Z,24.20
2022-08-17T12:26:04.422Z,24.10
2022-08-17T12:28:34.842Z,24.00
2022-08-17T12:31:03.292Z,23.90
2022-08-17T12:33:31.086Z,23.90
2022-08-17T12:36:00.422Z,23.90
2022-08-17T12:38:37.034Z,23.90
2022-08-17T12:41:38.399Z,23.80
2022-08-17T12:44:23.482Z,23.90
2022-08-17T12:47:10.159Z,24.00
2022-08-17T12:49:39.302Z,24.20
2022-08-17T12:52:18.366Z,24.40
2022-08-17T12:55:07.364Z,24.50
2022-08-17T12:58:03.799Z,24.60
2022-08-17T13:00:47.757Z,24.80
2022-08-17T13:03:36.181Z,25.00
2022-08-17T13:06:10.151Z,25.20
2022-08-17T13:08:43.816Z,25.50
2022-08-17T13:11:20.480Z,25.80
2022-08-17T13:13:54.499Z,26.00
2022-08-17T13:16:23.754Z,26.00
2022-08-17T13:19:18.926Z,25.80
2022-08-17T13:22:11.712Z,25.70
2022-08-17T13:24:38.970Z,25.50
2022-08-17T13:27:12.130Z,25.40
2022-08-17T13:29:44.649Z,25.40
2022-08-17T13:32:13.547Z,25.20
2022-08-17T13:35:13.082Z,25.10
2022-08-17T13:37:32.738Z,25.00
2022-08-17T13:40:02.651Z,25.00
2022-08-17T13:42:52.764Z,25.10
2022-08-17T13:45:39.425Z,25.00
2022-08-17T13:48:11.938Z,24.80
2022-08-17T13:50:56.071Z,24.70
2022-08-17T13:53:27.831Z,24.70
2022-08-17T13:55:54.594Z,24.60
2022-08-17T13:58:26.638Z,24.60
2022-08-17T14:00:53.746Z,24.50
2022-08-17T14:03:20.885Z,24.40
2022-08-17T14:05:48.679Z,24.30
2022-08-17T14:08:16.206Z,24.30
2022-08-17T14:10:45.052Z,24.30
2022-08-17T14:13:13.371Z,24.30
2022-08-17T14:15:56.041Z,24.40
2022-08-17T14:18:55.475Z,24.50
2022-08-17T14:21:11.507Z,24.50
2022-08-17T14:23:38.518Z,24.30
2022-08-17T14:26:05.308Z,24.40
2022-08-17T14:28:32.185Z,24.30
2022-08-17T14:31:00.433Z,24.40
2022-08-17T14:33:28.113Z,24.40
2022-08-17T14:35:55.984Z,24.50
2022-08-17T14:38:23.432Z,24.70
2022-08-17T14:40:50.229Z,24.90
2022-08-17T14:43:18.733Z,25.00
2022-08-17T14:45:45.514Z,25.00
2022-08-17T14:48:12.339Z,25.10
2022-08-17T14:50:41.845Z,25.20
2022-08-17T14:53:16.099Z,25.30
2022-08-17T14:55:45.824Z,25.40
2022-08-17T14:58:14.147Z,25.40
2022-08-17T15:00:43.710Z,25.40
2022-08-17T15:03:11.784Z,25.50
2022-08-17T15:05:38.858Z,25.50
2022-08-17T15:08:05.994Z,25.40
2022-08-17T15:10:32.802Z,25.30
2022-08-17T15:13:00.304Z,25.20
2022-08-17T15:15:27.513Z,25.20
2022-08-17T15:17:54.416Z,25.20
2022-08-17T15:20:23.003Z,25.20
2022-08-17T15:22:51.072Z,25.20
2022-08-17T15:25:19.378Z,25.10
2022-08-17T15:27:47.480Z,24.90
2022-08-17T15:30:15.188Z,24.80
2022-08-17T15:32:46.833Z,24.70
2022-08-17T15:35:18.696Z,24.50
2022-08-17T15:37:45.568Z,24.40
2022-08-17T15:40:12.897Z,24.40
2022-08-17T15:42:41.130Z,24.40
2022-08-17T15:45:09.860Z,24.40
2022-08-17T15:47:37.200Z,24.60
2022-08-17T15:50:06.443Z,24.70
2022-08-17T15:52:38.047Z,24.80
2022-08-17T15:55:05.831Z,24.80
2022-08-17T15:57:33.882Z,24.90
2022-08-17T16:00:00.853Z,24.80
2022-08-17T16:03:13.252Z,24.80
2022-08-17T16:05:18.808Z,24.80
2022-08-17T16:07:47.049Z,24.70
2022-08-17T16:10:18.865Z,24.60
2022-08-17T16:12:47.233Z,24.70
2022-08-17T16:15:14.510Z,24.80
2022-08-17T16:17:41.590Z,24.70
2022-08-17T16:20:20.290Z,24.70
2022-08-17T16:22:48.380Z,24.80
2022-08-17T16:25:18.874Z,24.80
2022-08-17T16:27:46.948Z,24.80
2022-08-17T16:30:17.527Z,24.80
2022-08-17T16:32:45.336Z,24.80
2022-08-17T16:35:12.931Z,24.70
2022-08-17T16:37:40.363Z,24.60
2022-08-17T16:40:12.683Z,24.60
2022-08-17T16:42:43.301Z,24.70
2022-08-17T16:45:16.964Z,24.70
2022-08-17T16:47:44.282Z,24.70
2022-08-17T16:50:12.264Z,24.70
2022-08-17T16:52:39.305Z,24.50
2022-08-17T16:55:07.746Z,24.40
2022-08-17T16:57:35.855Z,24.30
2022-08-17T17:00:04.664Z,24.30
2022-08-17T17:02:33.424Z,24.30
2022-08-17T17:05:01.704Z,24.40
2022-08-17T17:07:40.063Z,24.40
2022-08-17T17:10:17.887Z,24.40
2022-08-17T17:13:02.745Z,24.50
2022-08-17T17:15:54.880Z,24.40
2022-08-17T17:18:25.104Z,24.40
2022-08-17T17:20:56.470Z,24.40
2022-08-17T17:23:29.279Z,24.40
2022-08-17T17:26:14.691Z,24.30
2022-08-17T17:28:50.149Z,24.40
2022-08-17T17:31:18.668Z,24.40
2022-08-17T17:33:50.460Z,24.40
2022-08-17T17:36:22.735Z,24.40
2022-08-17T17:38:54.103Z,24.50
2022-08-17T17:41:33.158Z,24.40
2022-08-17T17:44:07.541Z,24.30
2022-08-17T17:46:38.025Z,24.10
2022-08-17T17:49:06.095Z,24.00
2022-08-17T17:52:06.719Z,23.90
2022-08-17T17:54:59.595Z,23.90
2022-08-17T17:57:35.129Z,23.80
2022-08-17T18:00:14.024Z,23.70
2022-08-17T18:02:57.363Z,23.70
2022-08-17T18:05:47.357Z,23.60
2022-08-17T18:08:34.861Z,23.60
2022-08-17T18:11:07.810Z,23.70
2022-08-17T18:13:56.408Z,23.50
2022-08-17T18:16:23.244Z,23.40
2022-08-17T18:18:52.266Z,23.20
2022-08-17T18:21:28.814Z,23.20
2022-08-17T18:23:56.824Z,23.20
2022-08-17T18:26:32.565Z,23.20
2022-08-17T18:29:00.460Z,23.20
2022-08-17T18:31:27.771Z,23.30
2022-08-17T18:33:55.499Z,23.20
2022-08-17T18:36:30.849Z,23.20
2022-08-17T18:39:14.013Z,23.20
2022-08-17T18:41:44.329Z,23.00
2022-08-17T18:44:29.166Z,23.00
2022-08-17T18:47:07.577Z,23.00
2022-08-17T18:49:35.328Z,22.90
2022-08-17T18:52:08.048Z,22.80
2022-08-17T18:54:37.353Z,22.80
2022-08-17T18:57:05.444Z,22.80
2022-08-17T18:59:35.260Z,22.80
2022-08-17T19:02:16.048Z,22.90
2022-08-17T19:04:44.953Z,22.80
2022-08-17T19:07:21.851Z,22.70
2022-08-17T19:09:50.589Z,22.70
2022-08-17T19:12:42.047Z,22.60
2022-08-17T19:15:12.086Z,22.60
2022-08-17T19:17:53.959Z,22.50
2022-08-17T19:20:28.959Z,22.40
2022-08-17T19:22:58.152Z,22.30
2022-08-17T19:25:27.481Z,22.20
2022-08-17T19:27:58.132Z,22.20
2022-08-17T19:30:25.142Z,22.30
2022-08-17T19:32:53.106Z,22.30
2022-08-17T19:35:22.332Z,22.30
2022-08-17T19:38:12.816Z,22.20
2022-08-17T19:40:55.237Z,22.10
2022-08-17T19:43:28.166Z,22.10
2022-08-17T19:46:13.818Z,22.00
2022-08-17T19:49:09.490Z,22.00
2022-08-17T19:51:53.939Z,21.80
2022-08-17T19:54:36.046Z,21.60
2022-08-17T19:57:15.066Z,21.50
2022-08-17T20:00:03.381Z,21.60
2022-08-17T20:02:40.992Z,21.50
2022-08-17T20:05:54.617Z,21.50
2022-08-17T20:08:29.984Z,21.50
2022-08-17T20:11:07.013Z,21.50
2022-08-17T20:13:36.793Z,21.50
2022-08-17T20:16:03.984Z,21.40
2022-08-17T20:18:38.103Z,21.40
2022-08-17T20:21:24.950Z,21.50
2022-08-17T20:24:16.481Z,21.50
2022-08-17T20:26:57.928Z,21.70
2022-08-17T20:29:37.776Z,21.60
2022-08-17T20:32:13.708Z,21.50
2022-08-17T20:34:40.845Z,21.40
2022-08-17T20:37:13.665Z,21.30
2022-08-17T20:39:42.026Z,21.20
2022-08-17T20:42:12.716Z,21.00
2022-08-17T20:44:44.965Z,20.90
2022-08-17T20:47:26.455Z,20.80
2022-08-17T20:50:05.554Z,20.70
2022-08-17T20:52:35.976Z,20.50
2022-08-17T20:55:04.284Z,20.50
2022-08-17T20:57:31.482Z,20.50
2022-08-17T20:59:58.510Z,20.40
2022-08-17T21:02:26.378Z,20.40
2022-08-17T21:04:54.564Z,20.50
2022-08-17T21:07:43.552Z,20.50
2022-08-17T21:10:23.881Z,20.50
2022-08-17T21:12:54.499Z,20.60
2022-08-17T21:15:29.505Z,20.70
2022-08-17T21:18:18.037Z,20.70
2022-08-17T21:20:58.348Z,20.70
2022-08-17T21:23:55.619Z,20.80
2022-08-17T21:26:33.889Z,20.70
2022-08-17T21:29:19.480Z,20.80
2022-08-17T21:32:01.505Z,20.80
2022-08-17T21:34:32.949Z,20.70
2022-08-17T21:37:18.377Z,20.70
2022-08-17T21:39:48.054Z,20.70
2022-08-17T21:42:15.424Z,20.60
2022-08-17T21:44:47.661Z,20.50
2022-08-17T21:47:51.074Z,20.50
2022-08-17T21:50:23.422Z,20.40
2022-08-17T21:52:54.555Z,20.50
2022-08-17T21:55:24.720Z,20.50
2022-08-17T21:57:53.183Z,20.40
2022-08-17T22:00:38.639Z,20.30
2022-08-17T22:03:09.040Z,20.30
2022-08-17T22:05:40.430Z,20.10
2022-08-17T22:08:08.787Z,20.00
2022-08-17T22:10:47.423Z,19.90
2022-08-17T22:13:17.695Z,19.80
2022-08-17T22:15:47.841Z,19.70
2022-08-17T22:18:20.271Z,19.60
2022-08-17T22:20:51.510Z,19.50
2022-08-17T22:23:44.081Z,19.40
2022-08-17T22:26:13.341Z,19.30
2022-08-17T22:28:54.461Z,19.20
2022-08-17T22:31:52.507Z,19.10
2022-08-17T22:34:19.603Z,19.20
2022-08-17T22:36:46.430Z,19.30
2022-08-17T22:39:13.451Z,19.20
2022-08-17T22:41:52.306Z,19.10
